sensor_id;sensor_type;location;lat;lon;timestamp;pressure;altitude;pressure_sealevel;temperature;humidity
74746;BME280;63267;53.352;-6.276;2022-11-25T10:37:46;100817.63;;;14.55;71.55
74746;BME280;63267;53.352;-6.276;2022-11-25T10:40:16;100837.13;;;14.57;71.56
74746;BME280;63267;53.352;-6.276;2022-11-25T10:42:42;100845.09;;;14.58;71.66
74746;BME280;63267;53.352;-6.276;2022-11-25T10:45:09;100844.13;;;14.61;71.69
74746;BME280;63267;53.352;-6.276;2022-11-25T10:48:03;100833.38;;;14.64;71.84
74746;BME280;63267;53.352;-6.276;2022-11-25T10:51:19;100853.00;;;14.92;66.61
74746;BME280;63267;53.352;-6.276;2022-11-25T10:53:27;100856.25;;;14.05;64.80
74746;BME280;63267;53.352;-6.276;2022-11-25T10:56:17;100867.72;;;13.70;65.92
74746;BME280;63267;53.352;-6.276;2022-11-25T10:58:43;100873.81;;;13.36;67.81
74746;BME280;63267;53.352;-6.276;2022-11-25T11:01:21;100863.28;;;13.30;67.56
74746;BME280;63267;53.352;-6.276;2022-11-25T11:03:52;100880.22;;;13.26;66.80
74746;BME280;63267;53.352;-6.276;2022-11-25T11:06:31;100861.66;;;13.63;70.10
74746;BME280;63267;53.352;-6.276;2022-11-25T11:08:59;100857.16;;;14.02;69.33
74746;BME280;63267;53.352;-6.276;2022-11-25T11:11:25;100871.44;;;14.36;69.40
74746;BME280;63267;53.352;-6.276;2022-11-25T11:13:58;100876.00;;;14.65;69.73
74746;BME280;63267;53.352;-6.276;2022-11-25T11:16:25;100879.84;;;14.87;69.37
74746;BME280;63267;53.352;-6.276;2022-11-25T11:18:54;100878.44;;;15.05;69.68
74746;BME280;63267;53.352;-6.276;2022-11-25T11:21:41;100882.47;;;15.20;70.14
74746;BME280;63267;53.352;-6.276;2022-11-25T11:24:29;100884.75;;;15.32;70.01
74746;BME280;63267;53.352;-6.276;2022-11-25T11:27:23;100880.09;;;15.40;70.10
74746;BME280;63267;53.352;-6.276;2022-11-25T11:30:14;100889.53;;;15.51;69.90
74746;BME280;63267;53.352;-6.276;2022-11-25T11:32:53;100890.13;;;15.61;69.87
74746;BME280;63267;53.352;-6.276;2022-11-25T11:37:51;100902.91;;;15.81;70.11
74746;BME280;63267;53.352;-6.276;2022-11-25T12:00:19;100925.59;;;17.00;68.60
74746;BME280;63267;53.352;-6.276;2022-11-25T12:03:02;100936.66;;;17.16;68.62
74746;BME280;63267;53.352;-6.276;2022-11-25T12:05:34;100926.50;;;17.24;68.87
74746;BME280;63267;53.352;-6.276;2022-11-25T12:08:29;100937.75;;;17.34;68.94
74746;BME280;63267;53.352;-6.276;2022-11-25T12:11:09;100957.22;;;17.39;69.07
74746;BME280;63267;53.352;-6.276;2022-11-25T12:13:50;100948.06;;;17.44;68.97
74746;BME280;63267;53.352;-6.276;2022-11-25T12:16:35;100952.41;;;17.48;68.72
74746;BME280;63267;53.352;-6.276;2022-11-25T12:19:19;100960.28;;;17.53;68.74
74746;BME280;63267;53.352;-6.276;2022-11-25T12:22:11;100972.50;;;17.60;68.51
74746;BME280;63267;53.352;-6.276;2022-11-25T12:25:25;100989.16;;;17.70;68.31
74746;BME280;63267;53.352;-6.276;2022-11-25T12:28:00;100987.19;;;17.73;68.18
74746;BME280;63267;53.352;-6.276;2022-11-25T12:33:26;100992.13;;;17.85;67.61
74746;BME280;63267;53.352;-6.276;2022-11-25T12:36:17;100988.19;;;17.94;66.97
74746;BME280;63267;53.352;-6.276;2022-11-25T12:39:02;100989.84;;;17.98;67.14
74746;BME280;63267;53.352;-6.276;2022-11-25T12:41:42;100999.44;;;18.03;67.03
74746;BME280;63267;53.352;-6.276;2022-11-25T12:44:33;101011.97;;;18.03;67.17
74746;BME280;63267;53.352;-6.276;2022-11-25T12:47:02;101011.88;;;18.06;67.14
74746;BME280;63267;53.352;-6.276;2022-11-25T12:49:34;101016.13;;;18.12;66.85
74746;BME280;63267;53.352;-6.276;2022-11-25T12:52:36;101020.34;;;18.17;66.59
74746;BME280;63267;53.352;-6.276;2022-11-25T12:55:31;101013.94;;;18.21;66.29
74746;BME280;63267;53.352;-6.276;2022-11-25T13:14:15;101030.50;;;18.32;66.39
74746;BME280;63267;53.352;-6.276;2022-11-25T13:16:47;101039.31;;;18.36;66.40
74746;BME280;63267;53.352;-6.276;2022-11-25T13:19:22;101048.22;;;18.36;66.02
74746;BME280;63267;53.352;-6.276;2022-11-25T13:24:44;101056.88;;;18.43;66.05
74746;BME280;63267;53.352;-6.276;2022-11-25T13:27:29;101052.34;;;18.45;66.01
74746;BME280;63267;53.352;-6.276;2022-11-25T13:29:55;101059.41;;;18.47;66.26
74746;BME280;63267;53.352;-6.276;2022-11-25T13:32:26;101067.44;;;18.47;66.19
74746;BME280;63267;53.352;-6.276;2022-11-25T13:37:51;101076.38;;;18.48;66.27
74746;BME280;63267;53.352;-6.276;2022-11-25T13:42:56;101088.38;;;18.39;66.35
74746;BME280;63267;53.352;-6.276;2022-11-25T13:45:41;101083.34;;;18.30;66.48
74746;BME280;63267;53.352;-6.276;2022-11-25T13:48:19;101100.59;;;18.23;66.44
74746;BME280;63267;53.352;-6.276;2022-11-25T13:50:46;101099.03;;;18.18;66.44
74746;BME280;63267;53.352;-6.276;2022-11-25T13:53:32;101097.50;;;18.11;66.63
74746;BME280;63267;53.352;-6.276;2022-11-25T14:01:39;101094.88;;;17.86;66.90
74746;BME280;63267;53.352;-6.276;2022-11-25T14:04:10;101108.50;;;17.80;66.96
74746;BME280;63267;53.352;-6.276;2022-11-25T14:07:03;101098.88;;;17.74;66.98
74746;BME280;63267;53.352;-6.276;2022-11-25T14:12:12;101098.00;;;17.74;66.97
74746;BME280;63267;53.352;-6.276;2022-11-25T14:15:18;101104.13;;;17.77;66.76
74746;BME280;63267;53.352;-6.276;2022-11-25T14:23:01;101110.91;;;17.87;66.43
74746;BME280;63267;53.352;-6.276;2022-11-25T14:25:45;101105.38;;;17.92;66.54
74746;BME280;63267;53.352;-6.276;2022-11-25T14:28:33;101111.50;;;17.95;66.48
74746;BME280;63267;53.352;-6.276;2022-11-25T14:31:24;101117.56;;;18.00;66.35
74746;BME280;63267;53.352;-6.276;2022-11-25T14:33:56;101111.19;;;18.03;66.31
74746;BME280;63267;53.352;-6.276;2022-11-25T14:36:29;101105.75;;;18.06;66.36
74746;BME280;63267;53.352;-6.276;2022-11-25T14:39:02;101110.16;;;18.07;66.19
74746;BME280;63267;53.352;-6.276;2022-11-25T14:41:54;101114.59;;;18.08;66.12
74746;BME280;63267;53.352;-6.276;2022-11-25T14:44:28;101115.53;;;18.07;66.52
74746;BME280;63267;53.352;-6.276;2022-11-25T14:46:57;101117.41;;;18.05;66.34
74746;BME280;63267;53.352;-6.276;2022-11-25T14:49:23;101130.94;;;18.02;66.51
74746;BME280;63267;53.352;-6.276;2022-11-25T14:51:50;101134.66;;;17.98;66.49
74746;BME280;63267;53.352;-6.276;2022-11-25T14:54:19;101142.00;;;17.93;66.72
74746;BME280;63267;53.352;-6.276;2022-11-25T14:56:46;101141.25;;;17.89;66.63
74746;BME280;63267;53.352;-6.276;2022-11-25T14:59:12;101145.00;;;17.84;66.56
74746;BME280;63267;53.352;-6.276;2022-11-25T15:01:50;101130.94;;;17.77;66.73
74746;BME280;63267;53.352;-6.276;2022-11-25T15:04:23;101149.88;;;17.73;67.00
74746;BME280;63267;53.352;-6.276;2022-11-25T15:06:52;101150.94;;;17.67;67.10
74746;BME280;63267;53.352;-6.276;2022-11-25T15:11:56;101165.69;;;17.55;66.97
74746;BME280;63267;53.352;-6.276;2022-11-25T15:14:50;101163.19;;;17.49;67.14
74746;BME280;63267;53.352;-6.276;2022-11-25T15:17:30;101168.66;;;17.46;67.14
74746;BME280;63267;53.352;-6.276;2022-11-25T15:19:58;101177.75;;;17.41;67.38
74746;BME280;63267;53.352;-6.276;2022-11-25T15:22:26;101176.16;;;17.35;67.26
74746;BME280;63267;53.352;-6.276;2022-11-25T15:24:54;101183.53;;;17.29;67.44
74746;BME280;63267;53.352;-6.276;2022-11-25T15:27:31;101191.69;;;17.24;67.35
74746;BME280;63267;53.352;-6.276;2022-11-25T15:29:56;101196.34;;;17.19;67.46
74746;BME280;63267;53.352;-6.276;2022-11-25T15:34:49;101191.31;;;17.09;67.37
74746;BME280;63267;53.352;-6.276;2022-11-25T15:37:15;101189.63;;;17.06;67.65
74746;BME280;63267;53.352;-6.276;2022-11-25T15:39:41;101195.19;;;17.00;67.50
74746;BME280;63267;53.352;-6.276;2022-11-25T15:42:22;101196.22;;;16.94;68.08
74746;BME280;63267;53.352;-6.276;2022-11-25T15:44:55;101192.84;;;16.89;67.95
74746;BME280;63267;53.352;-6.276;2022-11-25T15:47:30;101192.06;;;16.86;68.23
74746;BME280;63267;53.352;-6.276;2022-11-25T15:49:59;101198.50;;;16.80;68.09
74746;BME280;63267;53.352;-6.276;2022-11-25T15:52:29;101195.94;;;16.76;68.08
74746;BME280;63267;53.352;-6.276;2022-11-25T15:55:06;101201.47;;;16.70;68.18
74746;BME280;63267;53.352;-6.276;2022-11-25T15:57:41;101211.41;;;16.66;68.40
74746;BME280;63267;53.352;-6.276;2022-11-25T16:00:15;101210.63;;;16.63;68.75
74746;BME280;63267;53.352;-6.276;2022-11-25T16:26:47;101267.06;;;16.21;68.77
74746;BME280;63267;53.352;-6.276;2022-11-25T16:31:51;101273.47;;;16.14;68.73
74746;BME280;63267;53.352;-6.276;2022-11-25T16:34:19;101279.78;;;16.12;68.80
74746;BME280;63267;53.352;-6.276;2022-11-25T16:36:45;101287.03;;;16.08;68.88
74746;BME280;63267;53.352;-6.276;2022-11-25T16:39:11;101288.03;;;16.04;68.89
74746;BME280;63267;53.352;-6.276;2022-11-25T16:41:37;101281.91;;;16.00;68.97
74746;BME280;63267;53.352;-6.276;2022-11-25T16:44:04;101291.72;;;15.98;69.08
74746;BME280;63267;53.352;-6.276;2022-11-25T16:46:34;101293.59;;;15.95;69.14
74746;BME280;63267;53.352;-6.276;2022-11-25T16:49:06;101296.38;;;15.92;69.24
74746;BME280;63267;53.352;-6.276;2022-11-25T16:51:32;101310.63;;;15.91;69.07
74746;BME280;63267;53.352;-6.276;2022-11-25T16:53:58;101300.88;;;15.90;69.20
74746;BME280;63267;53.352;-6.276;2022-11-25T16:56:26;101306.31;;;15.87;69.13
74746;BME280;63267;53.352;-6.276;2022-11-25T16:58:52;101309.91;;;15.84;69.15
74746;BME280;63267;53.352;-6.276;2022-11-25T17:01:22;101318.88;;;15.82;69.23
74746;BME280;63267;53.352;-6.276;2022-11-25T17:03:48;101320.75;;;15.80;69.21
74746;BME280;63267;53.352;-6.276;2022-11-25T17:06:16;101312.81;;;15.77;69.36
74746;BME280;63267;53.352;-6.276;2022-11-25T17:08:42;101316.38;;;15.76;69.25
74746;BME280;63267;53.352;-6.276;2022-11-25T17:11:28;101307.59;;;15.71;69.20
74746;BME280;63267;53.352;-6.276;2022-11-25T17:13:55;101303.19;;;15.68;69.25
74746;BME280;63267;53.352;-6.276;2022-11-25T17:16:25;101304.16;;;15.66;69.35
74746;BME280;63267;53.352;-6.276;2022-11-25T17:18:54;101306.00;;;15.64;69.36
74746;BME280;63267;53.352;-6.276;2022-11-25T17:21:22;101316.72;;;15.62;69.30
74746;BME280;63267;53.352;-6.276;2022-11-25T17:23:51;101306.97;;;15.60;69.49
74746;BME280;63267;53.352;-6.276;2022-11-25T17:26:20;101316.84;;;15.56;69.63
74746;BME280;63267;53.352;-6.276;2022-11-25T17:28:59;101318.72;;;15.52;69.40
74746;BME280;63267;53.352;-6.276;2022-11-25T17:31:28;101326.75;;;15.52;69.54
74746;BME280;63267;53.352;-6.276;2022-11-25T17:33:54;101329.41;;;15.52;69.53
74746;BME280;63267;53.352;-6.276;2022-11-25T17:36:20;101335.66;;;15.51;69.44
74746;BME280;63267;53.352;-6.276;2022-11-25T17:38:47;101338.31;;;15.51;69.45
74746;BME280;63267;53.352;-6.276;2022-11-25T17:41:16;101341.94;;;15.50;69.62
